createdAt,value
2017-10-29T00:00:12.806Z,998.26
2017-10-29T00:00:38.933Z,998.26
2017-10-29T00:01:05.056Z,998.06
2017-10-29T00:01:31.217Z,998.22
2017-10-29T00:01:57.379Z,998.23
2017-10-29T00:02:23.524Z,998.21
2017-10-29T00:02:49.650Z,998.12
2017-10-29T00:03:15.771Z,998.07
2017-10-29T00:03:41.910Z,998.05
2017-10-29T00:04:08.029Z,998.03
2017-10-29T00:04:34.152Z,997.99
2017-10-29T00:05:00.278Z,998
2017-10-29T00:05:26.430Z,998.07
2017-10-29T00:05:52.548Z,998.04
2017-10-29T00:06:18.664Z,997.96
2017-10-29T00:06:44.819Z,997.98
2017-10-29T00:07:10.927Z,997.98
2017-10-29T00:07:37.053Z,998.01
2017-10-29T00:08:03.199Z,998.01
2017-10-29T00:08:32.356Z,997.92
2017-10-29T00:08:58.493Z,997.82
2017-10-29T00:09:24.645Z,997.78
2017-10-29T00:09:50.760Z,997.85
2017-10-29T00:10:16.915Z,997.71
2017-10-29T00:10:43.034Z,997.92
2017-10-29T00:11:09.162Z,997.87
2017-10-29T00:11:35.298Z,997.84
2017-10-29T00:12:01.421Z,997.86
2017-10-29T00:12:27.565Z,997.83
2017-10-29T00:12:53.714Z,997.95
2017-10-29T00:13:19.821Z,997.8
2017-10-29T00:13:45.991Z,997.85
2017-10-29T00:14:12.105Z,997.82
2017-10-29T00:14:38.226Z,997.82
2017-10-29T00:15:04.357Z,997.65
2017-10-29T00:15:30.480Z,997.72
2017-10-29T00:15:56.622Z,997.82
2017-10-29T00:16:22.741Z,997.91
2017-10-29T00:16:48.869Z,997.85
2017-10-29T00:17:14.992Z,997.66
2017-10-29T00:17:41.141Z,997.7
2017-10-29T00:18:07.270Z,997.8
2017-10-29T00:18:33.390Z,997.71
2017-10-29T00:18:59.516Z,997.68
2017-10-29T00:19:25.634Z,997.82
2017-10-29T00:19:51.761Z,997.7
2017-10-29T00:20:17.886Z,997.75
2017-10-29T00:20:44.010Z,997.73
2017-10-29T00:21:10.127Z,997.66
2017-10-29T00:21:36.261Z,997.68
2017-10-29T00:22:02.419Z,997.46
2017-10-29T00:22:28.558Z,997.68
2017-10-29T00:22:54.872Z,997.55
2017-10-29T00:23:20.992Z,997.72
2017-10-29T00:23:47.116Z,997.65
2017-10-29T00:24:13.238Z,997.58
2017-10-29T00:24:39.364Z,997.63
2017-10-29T00:25:05.489Z,997.6
2017-10-29T00:25:31.612Z,997.63
2017-10-29T00:25:57.731Z,997.47
2017-10-29T00:26:23.852Z,997.56
2017-10-29T00:26:49.997Z,997.75
2017-10-29T00:27:16.107Z,997.79
2017-10-29T00:27:42.234Z,997.73
2017-10-29T00:28:08.354Z,997.72
2017-10-29T00:28:34.479Z,997.72
2017-10-29T00:29:00.614Z,997.56
2017-10-29T00:29:26.730Z,997.7
2017-10-29T00:29:52.854Z,997.63
2017-10-29T00:30:18.980Z,997.64
2017-10-29T00:30:45.098Z,997.72
2017-10-29T00:31:11.269Z,997.7
2017-10-29T00:31:37.393Z,997.52
2017-10-29T00:32:03.513Z,997.56
2017-10-29T00:32:29.635Z,997.64
2017-10-29T00:32:55.764Z,997.67
2017-10-29T00:33:21.892Z,997.63
2017-10-29T00:33:48.006Z,997.74
2017-10-29T00:34:14.133Z,997.67
2017-10-29T00:34:40.290Z,997.65
2017-10-29T00:35:06.407Z,997.62
2017-10-29T00:35:32.535Z,997.72
2017-10-29T00:35:58.659Z,997.64
2017-10-29T00:36:24.779Z,997.62
2017-10-29T00:36:50.900Z,997.72
2017-10-29T00:37:17.019Z,997.69
2017-10-29T00:37:43.139Z,997.68
2017-10-29T00:38:09.267Z,997.76
2017-10-29T00:38:35.415Z,997.56
2017-10-29T00:39:01.534Z,997.66
2017-10-29T00:39:27.663Z,997.55
2017-10-29T00:39:53.779Z,997.62
2017-10-29T00:40:19.939Z,997.63
2017-10-29T00:40:46.066Z,997.62
2017-10-29T00:41:12.184Z,997.61
2017-10-29T00:41:38.311Z,997.64
2017-10-29T00:42:04.435Z,997.62
2017-10-29T00:42:30.554Z,997.69
2017-10-29T00:42:56.686Z,997.66
2017-10-29T00:43:22.825Z,997.69
2017-10-29T00:43:48.956Z,997.59
2017-10-29T00:44:15.109Z,997.66
2017-10-29T00:44:41.255Z,997.64
2017-10-29T00:45:07.370Z,997.59
2017-10-29T00:45:33.492Z,997.6
2017-10-29T00:45:59.620Z,997.52
2017-10-29T00:46:25.738Z,997.62
2017-10-29T00:46:51.865Z,997.57
2017-10-29T00:47:17.990Z,997.56
2017-10-29T00:47:44.129Z,997.4
2017-10-29T00:48:10.243Z,997.49
2017-10-29T00:48:36.396Z,997.47
2017-10-29T00:49:02.535Z,997.48
2017-10-29T00:49:28.639Z,997.34
2017-10-29T00:49:54.769Z,997.4
2017-10-29T00:50:20.913Z,997.39
2017-10-29T00:50:47.043Z,997.39
2017-10-29T00:51:13.159Z,997.43
2017-10-29T00:51:39.278Z,997.4
2017-10-29T00:52:05.409Z,997.38
2017-10-29T00:52:31.546Z,997.35
2017-10-29T00:52:57.726Z,997.4
2017-10-29T00:53:23.842Z,997.36
2017-10-29T00:53:49.971Z,997.4
2017-10-29T00:54:16.094Z,997.34
2017-10-29T00:54:42.218Z,997.32
2017-10-29T00:55:08.335Z,997.41
2017-10-29T00:55:34.483Z,997.28
2017-10-29T00:56:00.592Z,997.23
2017-10-29T00:56:26.709Z,997.44
2017-10-29T00:56:52.859Z,997.39
2017-10-29T00:57:19.009Z,997.42
2017-10-29T00:57:45.132Z,997.37
2017-10-29T00:58:11.262Z,997.28
2017-10-29T00:58:37.383Z,997.33
2017-10-29T00:59:03.505Z,997.42
2017-10-29T00:59:29.622Z,997.34
2017-10-29T00:59:55.745Z,997.32
2017-10-29T01:00:21.878Z,997.3
2017-10-29T01:00:48.009Z,997.31
2017-10-29T01:01:14.132Z,997.34
2017-10-29T01:01:40.259Z,997.3
2017-10-29T01:02:06.384Z,997.19
2017-10-29T01:02:32.501Z,997.04
2017-10-29T01:02:58.622Z,997.14
2017-10-29T01:03:24.750Z,997.29
2017-10-29T01:03:50.872Z,997.15
2017-10-29T01:04:17.001Z,997.32
2017-10-29T01:04:43.119Z,997.22
2017-10-29T01:05:09.247Z,997.22
2017-10-29T01:05:35.408Z,997.16
2017-10-29T01:06:01.562Z,997.14
2017-10-29T01:06:27.676Z,997.22
2017-10-29T01:06:53.810Z,997.34
2017-10-29T01:07:19.932Z,997.35
2017-10-29T01:07:46.050Z,997.28
2017-10-29T01:08:12.180Z,997.22
2017-10-29T01:08:38.298Z,997.24
2017-10-29T01:09:04.421Z,997.29
2017-10-29T01:09:30.560Z,997.3
2017-10-29T01:09:56.672Z,997.17
2017-10-29T01:10:22.798Z,997.21
2017-10-29T01:10:48.922Z,996.88
2017-10-29T01:11:15.042Z,997.21
2017-10-29T01:11:41.165Z,997.18
2017-10-29T01:12:07.295Z,997.07
2017-10-29T01:12:33.418Z,996.98
2017-10-29T01:12:59.543Z,997
2017-10-29T01:13:25.686Z,997.12
2017-10-29T01:13:51.808Z,997.18
2017-10-29T01:14:18.420Z,997.03
2017-10-29T01:14:44.548Z,997.08
2017-10-29T01:15:10.701Z,996.91
2017-10-29T01:15:36.828Z,997.08
2017-10-29T01:16:02.956Z,997.03
2017-10-29T01:16:29.074Z,996.94
2017-10-29T01:16:55.201Z,996.87
2017-10-29T01:17:21.336Z,997.04
2017-10-29T01:17:47.462Z,996.73
2017-10-29T01:18:13.609Z,996.82
2017-10-29T01:18:39.725Z,996.66
2017-10-29T01:19:05.867Z,996.94
2017-10-29T01:19:31.998Z,996.95
2017-10-29T01:19:58.115Z,996.76
2017-10-29T01:20:24.244Z,996.85
2017-10-29T01:20:50.367Z,996.87
2017-10-29T01:21:16.489Z,996.86
2017-10-29T01:21:42.617Z,996.86
2017-10-29T01:22:11.770Z,996.88
2017-10-29T01:22:37.890Z,996.88
2017-10-29T01:23:04.008Z,996.82
2017-10-29T01:23:30.138Z,996.86
2017-10-29T01:23:56.263Z,996.83
2017-10-29T01:24:22.386Z,996.83
2017-10-29T01:24:48.499Z,996.86
2017-10-29T01:25:14.626Z,996.89
2017-10-29T01:25:40.751Z,996.84
2017-10-29T01:26:06.872Z,996.87
2017-10-29T01:26:32.999Z,996.87
2017-10-29T01:26:59.142Z,996.88
2017-10-29T01:27:25.272Z,996.87
2017-10-29T01:27:51.390Z,996.79
2017-10-29T01:28:17.522Z,996.77
2017-10-29T01:28:43.644Z,996.74
2017-10-29T01:29:09.761Z,996.75
2017-10-29T01:29:35.887Z,996.73
2017-10-29T01:30:02.015Z,996.75
2017-10-29T01:30:28.141Z,996.82
2017-10-29T01:30:54.258Z,996.83
2017-10-29T01:31:20.386Z,996.77
2017-10-29T01:31:46.514Z,996.76
2017-10-29T01:32:12.658Z,996.6
2017-10-29T01:32:38.780Z,996.72
2017-10-29T01:33:04.903Z,996.59
2017-10-29T01:33:31.027Z,996.72
2017-10-29T01:33:57.172Z,996.63
2017-10-29T01:34:23.299Z,996.55
2017-10-29T01:34:49.428Z,996.77
2017-10-29T01:35:15.580Z,996.7
2017-10-29T01:35:41.696Z,996.69
2017-10-29T01:36:07.818Z,996.53
2017-10-29T01:36:33.944Z,996.61
2017-10-29T01:37:00.068Z,996.38
2017-10-29T01:37:26.211Z,996.51
2017-10-29T01:37:52.363Z,996.5
2017-10-29T01:38:18.485Z,996.45
2017-10-29T01:38:44.607Z,996.54
2017-10-29T01:39:10.756Z,996.62
2017-10-29T01:39:36.876Z,996.6
2017-10-29T01:40:02.994Z,996.65
2017-10-29T01:40:29.112Z,996.6
2017-10-29T01:40:55.240Z,996.57
2017-10-29T01:41:21.365Z,996.66
2017-10-29T01:41:47.482Z,996.5
2017-10-29T01:42:13.609Z,996.62
2017-10-29T01:42:39.755Z,996.64
2017-10-29T01:43:05.883Z,996.49
2017-10-29T01:43:32.001Z,996.64
2017-10-29T01:43:58.133Z,996.56
2017-10-29T01:44:24.256Z,996.58
2017-10-29T01:44:50.384Z,996.57
2017-10-29T01:45:16.503Z,996.62
2017-10-29T01:45:42.627Z,996.68
2017-10-29T01:46:08.758Z,996.63
2017-10-29T01:46:34.888Z,996.58
2017-10-29T01:47:01.009Z,996.58
2017-10-29T01:47:27.139Z,996.6
2017-10-29T01:47:53.262Z,996.56
2017-10-29T01:48:19.384Z,996.51
2017-10-29T01:48:45.511Z,996.51
2017-10-29T01:49:11.623Z,996.56
2017-10-29T01:49:37.752Z,996.44
2017-10-29T01:50:03.883Z,996.34
2017-10-29T01:50:30.017Z,996.49
2017-10-29T01:50:56.150Z,996.44
2017-10-29T01:51:22.263Z,996.38
2017-10-29T01:51:48.391Z,996.39
2017-10-29T01:52:14.514Z,996.35
2017-10-29T01:52:40.629Z,996.29
2017-10-29T01:53:06.762Z,996.31
2017-10-29T01:53:32.887Z,996.33
2017-10-29T01:53:59.003Z,996.38
2017-10-29T01:54:25.124Z,996.18
2017-10-29T01:54:51.250Z,996.48
2017-10-29T01:55:17.369Z,996.39
2017-10-29T01:55:43.496Z,996.3
2017-10-29T01:56:09.630Z,996.23
2017-10-29T01:56:35.740Z,996.38
2017-10-29T01:57:01.865Z,996.3
2017-10-29T01:57:28.002Z,996.34
2017-10-29T01:57:54.112Z,996.25
2017-10-29T01:58:20.235Z,996.38
2017-10-29T01:58:46.356Z,996.23
2017-10-29T01:59:12.478Z,996.32
2017-10-29T01:59:38.597Z,996.25
2017-10-29T02:00:04.723Z,996.21
2017-10-29T02:00:30.843Z,996.31
2017-10-29T02:00:56.969Z,996.28
2017-10-29T02:01:23.104Z,996.13
2017-10-29T02:01:49.230Z,996.28
2017-10-29T02:02:15.356Z,996.36
2017-10-29T02:02:41.476Z,996.25
2017-10-29T02:03:07.603Z,996.4
2017-10-29T02:03:33.734Z,996.32
2017-10-29T02:03:59.854Z,996.28
2017-10-29T02:04:25.980Z,996.29
2017-10-29T02:04:52.093Z,996.35
2017-10-29T02:05:18.222Z,996.28
2017-10-29T02:05:44.348Z,996.31
2017-10-29T02:06:10.476Z,996.39
2017-10-29T02:06:36.619Z,996.22
2017-10-29T02:07:02.737Z,996.24
2017-10-29T02:07:28.889Z,996.2
2017-10-29T02:07:55.010Z,996.33
2017-10-29T02:08:21.132Z,996.31
2017-10-29T02:08:47.260Z,996.15
2017-10-29T02:09:13.381Z,996.25
2017-10-29T02:09:39.511Z,996.15
2017-10-29T02:10:05.635Z,996.29
2017-10-29T02:10:31.752Z,996.14
2017-10-29T02:10:57.882Z,996.31
2017-10-29T02:11:24.001Z,996.15
2017-10-29T02:11:50.123Z,995.96
2017-10-29T02:12:16.251Z,996.06
2017-10-29T02:12:42.376Z,996.06
2017-10-29T02:13:08.496Z,996.12
2017-10-29T02:13:34.616Z,996
2017-10-29T02:14:00.742Z,996.1
2017-10-29T02:14:26.860Z,996.03
2017-10-29T02:14:52.989Z,996.11
2017-10-29T02:15:19.135Z,996.05
2017-10-29T02:15:45.252Z,996.05
2017-10-29T02:16:11.374Z,996.07
2017-10-29T02:16:37.501Z,995.94
2017-10-29T02:17:03.624Z,996.01
2017-10-29T02:17:29.747Z,996.03
2017-10-29T02:17:55.865Z,996.04
2017-10-29T02:18:21.989Z,995.88
2017-10-29T02:18:48.112Z,996.03
2017-10-29T02:19:14.235Z,996.01
2017-10-29T02:19:40.351Z,996.11
2017-10-29T02:20:06.477Z,995.83
2017-10-29T02:20:32.622Z,995.89
2017-10-29T02:20:58.768Z,995.87
2017-10-29T02:21:24.893Z,996.09
2017-10-29T02:21:51.011Z,995.94
2017-10-29T02:22:17.131Z,995.74
2017-10-29T02:22:43.258Z,995.79
2017-10-29T02:23:09.381Z,996
2017-10-29T02:23:35.509Z,995.99
2017-10-29T02:24:01.628Z,995.62
2017-10-29T02:24:27.757Z,995.92
2017-10-29T02:24:53.875Z,995.92
2017-10-29T02:25:19.994Z,995.96
2017-10-29T02:25:46.115Z,996.05
2017-10-29T02:26:12.242Z,995.82
2017-10-29T02:26:38.388Z,995.85
2017-10-29T02:27:04.504Z,995.97
2017-10-29T02:27:30.652Z,995.89
2017-10-29T02:27:56.804Z,995.91
2017-10-29T02:28:22.898Z,995.94
2017-10-29T02:28:49.019Z,995.89
2017-10-29T02:29:15.148Z,995.89
2017-10-29T02:29:41.288Z,996.01
2017-10-29T02:30:07.408Z,995.92
2017-10-29T02:30:33.556Z,995.95
2017-10-29T02:30:59.684Z,995.6
2017-10-29T02:31:25.808Z,995.9
2017-10-29T02:31:51.930Z,995.94
2017-10-29T02:32:18.061Z,996.07
2017-10-29T02:32:44.175Z,995.91
2017-10-29T02:33:10.322Z,995.94
2017-10-29T02:33:36.444Z,996.12
2017-10-29T02:34:02.565Z,996.01
2017-10-29T02:34:28.684Z,995.83
2017-10-29T02:34:54.811Z,995.96
2017-10-29T02:35:20.955Z,996.14
2017-10-29T02:35:47.073Z,995.94
2017-10-29T02:36:13.228Z,995.82
2017-10-29T02:36:39.361Z,995.92
2017-10-29T02:37:05.488Z,996.07
2017-10-29T02:37:31.608Z,995.97
2017-10-29T02:37:57.744Z,996.09
2017-10-29T02:38:23.858Z,995.94
2017-10-29T02:38:49.983Z,996.16
2017-10-29T02:39:16.105Z,996.18
2017-10-29T02:39:42.222Z,996.01
2017-10-29T02:40:08.351Z,996.1
2017-10-29T02:40:34.477Z,996.27
2017-10-29T02:41:00.614Z,995.97
2017-10-29T02:41:26.738Z,996.17
2017-10-29T02:41:52.864Z,996.23
2017-10-29T02:42:19.018Z,996.13
2017-10-29T02:42:45.130Z,996.21
2017-10-29T02:43:11.237Z,996
2017-10-29T02:43:37.361Z,996.16
2017-10-29T02:44:03.479Z,996.08
2017-10-29T02:44:29.597Z,996.15
2017-10-29T02:44:55.721Z,996.21
2017-10-29T02:45:21.847Z,996.13
2017-10-29T02:45:47.964Z,996.14
2017-10-29T02:46:14.083Z,996.11
2017-10-29T02:46:40.231Z,996.14
2017-10-29T02:47:06.345Z,996.07
2017-10-29T02:47:32.469Z,996.18
2017-10-29T02:47:58.597Z,996.11
2017-10-29T02:48:24.724Z,996.01
2017-10-29T02:48:50.850Z,996.05
2017-10-29T02:49:16.996Z,996.01
2017-10-29T02:49:43.138Z,996.07
2017-10-29T02:50:09.248Z,996.03
2017-10-29T02:50:35.372Z,996.03
2017-10-29T02:51:01.501Z,996.09
2017-10-29T02:51:27.621Z,996.16
2017-10-29T02:51:53.737Z,996.02
2017-10-29T02:52:19.865Z,996.06
2017-10-29T02:52:45.990Z,996.11
2017-10-29T02:53:12.112Z,995.94
2017-10-29T02:53:38.234Z,996.04
2017-10-29T02:54:04.360Z,996.07
2017-10-29T02:54:30.482Z,996.07
2017-10-29T02:54:56.599Z,996.12
2017-10-29T02:55:22.726Z,996.08
2017-10-29T02:55:48.844Z,996.08
2017-10-29T02:56:14.972Z,996.09
2017-10-29T02:56:41.088Z,996.09
2017-10-29T02:57:07.214Z,995.98
2017-10-29T02:57:33.335Z,995.96
2017-10-29T02:57:59.452Z,996.12
2017-10-29T02:58:25.577Z,995.92
2017-10-29T02:58:51.704Z,996
2017-10-29T02:59:17.834Z,995.95
2017-10-29T02:59:43.941Z,996.04
2017-10-29T03:00:10.066Z,996.14
2017-10-29T03:00:36.187Z,996.05
2017-10-29T03:01:02.313Z,996.03
2017-10-29T03:01:28.436Z,996.05
2017-10-29T03:01:54.563Z,996.14
2017-10-29T03:02:20.680Z,996.08
2017-10-29T03:02:46.807Z,996.06
2017-10-29T03:03:12.932Z,996.13
2017-10-29T03:03:39.054Z,996.09
2017-10-29T03:04:05.185Z,996.1
2017-10-29T03:04:31.303Z,995.99
2017-10-29T03:04:57.419Z,996.16
2017-10-29T03:05:23.548Z,996.24
2017-10-29T03:05:49.672Z,996.18
2017-10-29T03:06:15.790Z,996.29
2017-10-29T03:06:41.913Z,996.34
2017-10-29T03:07:08.062Z,996.34
2017-10-29T03:07:34.183Z,996.32
2017-10-29T03:08:00.310Z,996.27
2017-10-29T03:08:26.436Z,996.44
2017-10-29T03:08:52.554Z,996.37
2017-10-29T03:09:18.682Z,996.41
2017-10-29T03:09:44.802Z,996.3
2017-10-29T03:10:10.919Z,996.46
2017-10-29T03:10:37.043Z,996.31
2017-10-29T03:11:03.173Z,996.4
2017-10-29T03:11:29.291Z,996.5
2017-10-29T03:11:55.412Z,996.52
2017-10-29T03:12:21.557Z,996.47
2017-10-29T03:12:47.703Z,996.57
2017-10-29T03:13:13.832Z,996.58
2017-10-29T03:13:39.950Z,996.67
2017-10-29T03:14:06.081Z,996.66
2017-10-29T03:14:32.200Z,996.75
2017-10-29T03:14:58.329Z,996.66
2017-10-29T03:15:24.455Z,996.82
2017-10-29T03:15:50.572Z,996.8
2017-10-29T03:16:16.695Z,996.91
2017-10-29T03:16:42.820Z,996.81
2017-10-29T03:17:08.954Z,996.92
2017-10-29T03:17:35.108Z,996.79
2017-10-29T03:18:01.224Z,997.1
2017-10-29T03:18:27.349Z,996.92
2017-10-29T03:18:53.467Z,997.03
2017-10-29T03:19:19.594Z,996.96
2017-10-29T03:19:45.719Z,996.87
2017-10-29T03:20:11.847Z,997.01
2017-10-29T03:20:37.971Z,997.06
2017-10-29T03:21:04.089Z,997.15
2017-10-29T03:21:30.217Z,997.31
2017-10-29T03:21:56.339Z,997.14
2017-10-29T03:22:22.459Z,997.27
2017-10-29T03:22:48.589Z,997.39
2017-10-29T03:23:14.706Z,997.35
2017-10-29T03:23:40.825Z,997.21
2017-10-29T03:24:06.952Z,997.26
2017-10-29T03:24:33.077Z,997.01
2017-10-29T03:24:59.195Z,997.19
2017-10-29T03:25:25.318Z,997.19
2017-10-29T03:25:51.440Z,997.36
2017-10-29T03:26:17.567Z,997.33
2017-10-29T03:26:43.684Z,997.35
2017-10-29T03:27:09.812Z,997.28
2017-10-29T03:27:35.930Z,997.25
2017-10-29T03:28:02.060Z,997.34
2017-10-29T03:28:28.205Z,997.33
2017-10-29T03:28:54.322Z,997.27
2017-10-29T03:29:20.445Z,997.25
2017-10-29T03:29:46.570Z,996.95
2017-10-29T03:30:12.694Z,997.2
2017-10-29T03:30:38.812Z,997.22
2017-10-29T03:31:04.934Z,997.29
2017-10-29T03:31:31.060Z,997.23
2017-10-29T03:31:57.186Z,997.17
2017-10-29T03:32:23.308Z,997.3
2017-10-29T03:32:49.430Z,997.25
2017-10-29T03:33:15.547Z,997.25
2017-10-29T03:33:41.675Z,997.27
2017-10-29T03:34:07.797Z,997.13
2017-10-29T03:34:33.927Z,997.16
2017-10-29T03:35:00.043Z,997.19
2017-10-29T03:35:26.160Z,997
2017-10-29T03:35:52.287Z,996.98
2017-10-29T03:36:18.403Z,997.08
2017-10-29T03:36:44.553Z,997.03
2017-10-29T03:37:10.687Z,997.02
2017-10-29T03:37:36.807Z,997.1
2017-10-29T03:38:02.938Z,997.04
2017-10-29T03:38:29.056Z,997.15
2017-10-29T03:38:55.179Z,997.16
2017-10-29T03:39:21.302Z,997.2
2017-10-29T03:39:47.426Z,997.25
2017-10-29T03:40:13.582Z,997.23
2017-10-29T03:40:39.709Z,997.24
2017-10-29T03:41:05.789Z,997.19
2017-10-29T03:41:31.922Z,997.14
2017-10-29T03:41:58.046Z,997.13
2017-10-29T03:42:24.193Z,997.26
2017-10-29T03:42:50.314Z,997.24
2017-10-29T03:43:16.438Z,997.25
2017-10-29T03:43:42.558Z,997.23
2017-10-29T03:44:08.692Z,997.24
2017-10-29T03:44:34.818Z,997.21
2017-10-29T03:45:00.955Z,997.23
2017-10-29T03:45:27.086Z,997.34
2017-10-29T03:45:53.210Z,997.16
2017-10-29T03:46:19.329Z,997.15
2017-10-29T03:46:45.453Z,997.28
2017-10-29T03:47:11.578Z,997.19
2017-10-29T03:47:37.697Z,997.28
2017-10-29T03:48:03.817Z,997.19
2017-10-29T03:48:29.950Z,997.21
2017-10-29T03:48:56.067Z,997.04
2017-10-29T03:49:22.186Z,997.27
2017-10-29T03:49:48.313Z,997.3
2017-10-29T03:50:14.430Z,997.28
2017-10-29T03:50:40.579Z,997.25
2017-10-29T03:51:06.695Z,997.42
2017-10-29T03:51:32.818Z,997.33
2017-10-29T03:51:58.949Z,997.25
2017-10-29T03:52:25.062Z,997.33
2017-10-29T03:52:51.183Z,997.32
2017-10-29T03:53:17.307Z,997.36
2017-10-29T03:53:43.435Z,997.27
2017-10-29T03:54:09.552Z,997.41
2017-10-29T03:54:35.679Z,997.48
2017-10-29T03:55:01.795Z,997.46
2017-10-29T03:55:27.918Z,997.37
2017-10-29T03:55:54.045Z,997.27
2017-10-29T03:56:20.161Z,997.27
2017-10-29T03:56:46.285Z,997.21
2017-10-29T03:57:12.424Z,997.35
2017-10-29T03:57:38.555Z,997.34
2017-10-29T03:58:04.666Z,997.35
2017-10-29T03:58:30.794Z,997.31
2017-10-29T03:58:56.922Z,997.4
2017-10-29T03:59:23.046Z,997.4
2017-10-29T03:59:49.162Z,997.36
2017-10-29T04:00:15.286Z,997.3
2017-10-29T04:00:41.431Z,997.26
2017-10-29T04:01:07.549Z,997.27
2017-10-29T04:01:33.671Z,997.3
2017-10-29T04:01:59.791Z,997.28
2017-10-29T04:02:25.910Z,997.35
2017-10-29T04:02:52.036Z,997.18
2017-10-29T04:03:18.161Z,997.25
2017-10-29T04:03:44.283Z,997.25
2017-10-29T04:04:10.404Z,997.33
2017-10-29T04:04:36.528Z,997.34
2017-10-29T04:05:02.648Z,997.21
2017-10-29T04:05:28.776Z,997.26
2017-10-29T04:05:54.904Z,997.28
2017-10-29T04:06:21.028Z,997.11
2017-10-29T04:06:47.155Z,997.2
2017-10-29T04:07:13.302Z,997.42
2017-10-29T04:07:39.387Z,997.34
2017-10-29T04:08:05.516Z,997.44
2017-10-29T04:08:31.635Z,997.4
2017-10-29T04:08:57.759Z,997.44
2017-10-29T04:09:23.886Z,997.5
2017-10-29T04:09:50.006Z,997.48
2017-10-29T04:10:16.122Z,997.42
2017-10-29T04:10:42.248Z,997.53
2017-10-29T04:11:08.392Z,997.45
2017-10-29T04:11:34.518Z,997.5
2017-10-29T04:12:00.634Z,997.5
2017-10-29T04:12:26.761Z,997.39
2017-10-29T04:12:52.880Z,997.45
2017-10-29T04:13:19.005Z,997.55
2017-10-29T04:13:45.131Z,997.45
2017-10-29T04:14:11.250Z,997.54
2017-10-29T04:14:37.370Z,997.43
2017-10-29T04:15:03.516Z,997.44
2017-10-29T04:15:29.639Z,997.43
2017-10-29T04:15:55.758Z,997.46
2017-10-29T04:16:21.880Z,997.36
2017-10-29T04:16:48.006Z,997.34
2017-10-29T04:17:14.127Z,997.34
2017-10-29T04:17:40.249Z,997.4
2017-10-29T04:18:06.376Z,997.51
2017-10-29T04:18:32.494Z,997.43
2017-10-29T04:18:58.627Z,997.47
2017-10-29T04:19:24.761Z,997.35
2017-10-29T04:19:50.883Z,997.36
2017-10-29T04:20:17.011Z,997.55
2017-10-29T04:20:43.132Z,997.52
2017-10-29T04:21:09.256Z,997.56
2017-10-29T04:21:35.374Z,997.41
2017-10-29T04:22:01.501Z,997.45
2017-10-29T04:22:27.617Z,997.55
2017-10-29T04:22:53.741Z,997.64
2017-10-29T04:23:19.870Z,997.53
2017-10-29T04:23:46.015Z,997.49
2017-10-29T04:24:12.135Z,997.69
2017-10-29T04:24:38.259Z,997.76
2017-10-29T04:25:04.378Z,997.65
2017-10-29T04:25:30.510Z,997.49
2017-10-29T04:25:56.633Z,997.62
2017-10-29T04:26:22.771Z,997.53
2017-10-29T04:26:48.896Z,997.7
2017-10-29T04:27:15.025Z,997.71
2017-10-29T04:27:41.143Z,997.86
2017-10-29T04:28:07.269Z,997.55
2017-10-29T04:28:33.390Z,997.67
2017-10-29T04:28:59.508Z,997.71
2017-10-29T04:29:25.639Z,997.71
2017-10-29T04:29:51.766Z,997.71
2017-10-29T04:30:17.886Z,997.73
2017-10-29T04:30:44.010Z,997.78
2017-10-29T04:31:10.140Z,997.94
2017-10-29T04:31:36.246Z,997.7
2017-10-29T04:32:02.367Z,997.72
2017-10-29T04:32:28.494Z,997.86
2017-10-29T04:32:54.610Z,997.75
2017-10-29T04:33:20.737Z,997.79
2017-10-29T04:33:46.861Z,997.79
2017-10-29T04:34:12.980Z,997.76
2017-10-29T04:34:39.123Z,997.66
2017-10-29T04:35:05.263Z,997.53
2017-10-29T04:35:31.385Z,997.77
2017-10-29T04:35:57.502Z,997.89
2017-10-29T04:36:23.629Z,997.85
2017-10-29T04:36:49.748Z,997.79
2017-10-29T04:37:15.871Z,997.92
2017-10-29T04:37:41.998Z,997.86
2017-10-29T04:38:08.117Z,997.94
2017-10-29T04:38:34.242Z,997.86
2017-10-29T04:39:00.368Z,997.83
2017-10-29T04:39:26.487Z,997.9
2017-10-29T04:39:52.615Z,997.78
2017-10-29T04:40:18.734Z,997.79
2017-10-29T04:40:44.862Z,997.94
2017-10-29T04:41:10.980Z,998.12
2017-10-29T04:41:37.106Z,997.74
2017-10-29T04:42:03.225Z,997.87
2017-10-29T04:42:29.345Z,997.85
2017-10-29T04:42:55.474Z,997.75
2017-10-29T04:43:21.619Z,997.89
2017-10-29T04:43:47.713Z,997.79
2017-10-29T04:44:13.831Z,998.02
2017-10-29T04:44:39.960Z,998
2017-10-29T04:45:06.082Z,998.07
2017-10-29T04:45:32.213Z,998.04
2017-10-29T04:45:58.330Z,998.08
2017-10-29T04:46:24.455Z,997.99
2017-10-29T04:46:50.574Z,998.02
2017-10-29T04:47:16.697Z,998.02
2017-10-29T04:47:42.828Z,998.07
2017-10-29T04:48:08.944Z,998.02
2017-10-29T04:48:35.068Z,997.81
2017-10-29T04:49:01.188Z,998.03
2017-10-29T04:49:27.310Z,998.14
2017-10-29T04:49:53.430Z,998.11
2017-10-29T04:50:19.558Z,998.12
2017-10-29T04:50:45.687Z,998.03
2017-10-29T04:51:11.813Z,998
2017-10-29T04:51:37.931Z,998.04
2017-10-29T04:52:04.060Z,997.99
2017-10-29T04:52:30.176Z,998.17
2017-10-29T04:52:56.293Z,998.36
2017-10-29T04:53:22.420Z,998.26
2017-10-29T04:53:48.540Z,998.16
2017-10-29T04:54:14.664Z,998.24
2017-10-29T04:54:40.787Z,998.17
2017-10-29T04:55:06.906Z,998.05
2017-10-29T04:55:33.031Z,998.19
2017-10-29T04:55:59.150Z,998.13
2017-10-29T04:56:25.274Z,998.2
2017-10-29T04:56:51.400Z,998.13
2017-10-29T04:57:17.514Z,998.32
2017-10-29T04:57:43.643Z,998.16
2017-10-29T04:58:09.768Z,998.37
2017-10-29T04:58:35.885Z,998.38
2017-10-29T04:59:02.014Z,998.31
2017-10-29T04:59:28.133Z,998.19
2017-10-29T04:59:54.257Z,998.55
2017-10-29T05:00:20.377Z,998.47
2017-10-29T05:00:46.498Z,998.42
2017-10-29T05:01:12.632Z,998.42
2017-10-29T05:01:38.744Z,998.46
2017-10-29T05:02:04.871Z,998.26
2017-10-29T05:02:30.994Z,998.32
2017-10-29T05:02:57.116Z,998.38
2017-10-29T05:03:23.260Z,998.46
2017-10-29T05:03:49.383Z,998.48
2017-10-29T05:04:15.506Z,998.34
2017-10-29T05:04:41.624Z,998.39
2017-10-29T05:05:07.752Z,998.44
2017-10-29T05:05:33.869Z,998.24
2017-10-29T05:05:59.994Z,998.4
2017-10-29T05:06:26.119Z,998.35
2017-10-29T05:06:52.234Z,998.44
2017-10-29T05:07:18.361Z,998.57
2017-10-29T05:07:44.478Z,998.49
2017-10-29T05:08:10.607Z,998.48
2017-10-29T05:08:36.726Z,998.44
2017-10-29T05:09:02.846Z,998.51
2017-10-29T05:09:28.976Z,998.53
2017-10-29T05:09:55.140Z,998.51
2017-10-29T05:10:21.269Z,998.54
2017-10-29T05:10:47.386Z,998.61
2017-10-29T05:11:13.516Z,998.53
2017-10-29T05:11:39.637Z,998.66
2017-10-29T05:12:05.757Z,998.54
2017-10-29T05:12:31.910Z,998.59
2017-10-29T05:12:58.054Z,998.72
2017-10-29T05:13:24.175Z,998.58
2017-10-29T05:13:50.293Z,998.6
2017-10-29T05:14:16.419Z,998.7
2017-10-29T05:14:42.541Z,998.37
2017-10-29T05:15:08.660Z,998.64
2017-10-29T05:15:34.784Z,998.65
2017-10-29T05:16:00.907Z,998.74
2017-10-29T05:16:27.034Z,998.59
2017-10-29T05:16:53.155Z,998.79
2017-10-29T05:17:19.273Z,998.68
2017-10-29T05:17:45.401Z,998.8
2017-10-29T05:18:11.526Z,998.72
2017-10-29T05:18:37.646Z,998.7
2017-10-29T05:19:03.789Z,998.77
2017-10-29T05:19:29.906Z,998.78
2017-10-29T05:19:56.027Z,998.85
2017-10-29T05:20:22.174Z,998.82
2017-10-29T05:20:48.293Z,998.54
2017-10-29T05:21:14.428Z,998.95
2017-10-29T05:21:40.544Z,998.73
2017-10-29T05:22:06.664Z,998.96
2017-10-29T05:22:32.794Z,998.94
2017-10-29T05:22:58.917Z,998.8
2017-10-29T05:23:25.033Z,998.93
2017-10-29T05:23:51.157Z,998.86
2017-10-29T05:24:17.285Z,998.92
2017-10-29T05:24:43.402Z,998.93
2017-10-29T05:25:09.530Z,998.97
2017-10-29T05:25:35.648Z,999
2017-10-29T05:26:01.776Z,998.98
2017-10-29T05:26:27.917Z,999.04
2017-10-29T05:26:54.037Z,999.05
2017-10-29T05:27:20.161Z,998.97